Hauptseite
METAR-TAF:

METAR-TAF

Flughäfen :

London Oxford Airport

Oxford, England

Breite: 51-50-13N, Länge: 1-19-12W, Höhe: 82 m

Beobachtung

Neuester Wetterbericht von vor 6 Stunden und 12 Minuten, um 17:50 UTC
Wind 3 kt aus Nord/Nordost
Temperatur 12°C
Luftfeuchtigkeit 94%
Luftdruck 1008 hPa
Sichtweite: 7000 m
Aufgelockert bewölkt in der Höhe von 3600 ft

METAR: EGTK 231750Z 02003KT 7000 SCT036 12/11 Q1008

Zeit: 01:02 (00:02 UTC)

Prognose

Neuester Wetterbericht von vor 6 Stunden und 59 Minuten, um 17:03 UTC
Gültige Prognose vom 23 um 18 UTC bis 23 um 22 UTC
Wind 3 kt aus unterschiedlichen Richtungen
Sichtweite 10 km oder mehr
Leicht bewölkt in der Höhe von 3000 ft
Übergehend zu
vom 23 um 18 UTC bis 23 um 21 UTC
Sichtweite: 8000 m
Durchbrochene Bewölkung in der Höhe von 800 ft
Leichtregen, Sprühregen

TAF: EGTK 231703Z 2318/2322 VRB03KT 9999 FEW030 BECMG 2318/2321 8000 -RADZ BKN008

Wetterbeobachtungen und Prognosen von mehr als 4000 Flughäfen (METAR und TAF Bericht).

Die verfügbaren Stationen werden durch gelbe und rote Markierungen auf der Karte dargestellt.

Führen Sie die Maus auf sie, um den Namen der Station zu sehen.

Darauf klicken, um die Beobachtung von Wetterbeobachtungen und Prognosen zu sehen.

Um die Karte zu ändern : klicken Sie auf den grünen Tasten mit einem schwarzen Kreuz Zum Vergrößern, auf den grünen Button mit einem Gedankenstrich zu verkleinern, oder auf die grünen Pfeile für benachbarte Karten.


METAR-TAF: